Map

Track Data

SID SEASON NUMBER BASIN SUBBASIN NAME ISO_TIME NATURE LAT LON WMO_WIND WMO_PRES WMO_AGENCY TRACK_TYPE DIST2LAND LANDFALL IFLAG USA_AGENCY USA_ATCF_ID USA_LAT USA_LON USA_RECORD USA_STATUS USA_WIND USA_PRES USA_SSHS USA_R34_NE USA_R34_SE USA_R34_SW USA_R34_NW USA_R50_NE USA_R50_SE USA_R50_SW USA_R50_NW USA_R64_NE USA_R64_SE USA_R64_SW USA_R64_NW USA_POCI USA_ROCI USA_RMW USA_EYE TOKYO_LAT TOKYO_LON TOKYO_GRADE TOKYO_WIND TOKYO_PRES TOKYO_R50_DIR TOKYO_R50_LONG TOKYO_R50_SHORT TOKYO_R30_DIR TOKYO_R30_LONG TOKYO_R30_SHORT TOKYO_LAND CMA_LAT CMA_LON CMA_CAT CMA_WIND CMA_PRES HKO_LAT HKO_LON HKO_CAT HKO_WIND HKO_PRES NEWDELHI_LAT NEWDELHI_LON NEWDELHI_GRADE NEWDELHI_WIND NEWDELHI_PRES NEWDELHI_CI NEWDELHI_DP NEWDELHI_POCI REUNION_LAT REUNION_LON REUNION_TYPE REUNION_WIND REUNION_PRES REUNION_TNUM REUNION_CI REUNION_RMW REUNION_R34_NE REUNION_R34_SE REUNION_R34_SW REUNION_R34_NW REUNION_R50_NE REUNION_R50_SE REUNION_R50_SW REUNION_R50_NW REUNION_R64_NE REUNION_R64_SE REUNION_R64_SW REUNION_R64_NW BOM_LAT BOM_LON BOM_TYPE BOM_WIND BOM_PRES BOM_TNUM BOM_CI BOM_RMW BOM_R34_NE BOM_R34_SE BOM_R34_SW BOM_R34_NW BOM_R50_NE BOM_R50_SE BOM_R50_SW BOM_R50_NW BOM_R64_NE BOM_R64_SE BOM_R64_SW BOM_R64_NW BOM_ROCI BOM_POCI BOM_EYE BOM_POS_METHOD BOM_PRES_METHOD NADI_LAT NADI_LON NADI_CAT NADI_WIND NADI_PRES WELLINGTON_LAT WELLINGTON_LON WELLINGTON_WIND WELLINGTON_PRES DS824_LAT DS824_LON DS824_STAGE DS824_WIND DS824_PRES TD9636_LAT TD9636_LON TD9636_STAGE TD9636_WIND TD9636_PRES TD9635_LAT TD9635_LON TD9635_WIND TD9635_PRES TD9635_ROCI NEUMANN_LAT NEUMANN_LON NEUMANN_CLASS NEUMANN_WIND NEUMANN_PRES MLC_LAT MLC_LON MLC_CLASS MLC_WIND MLC_PRES USA_GUST BOM_GUST BOM_GUST_PER REUNION_GUST REUNION_GUST_PER USA_SEAHGT USA_SEARAD_NE USA_SEARAD_SE USA_SEARAD_SW USA_SEARAD_NW STORM_SPEED STORM_DIR
1891321N13142 1891 60 WP MM NOT_NAMED 1891-11-16 16:00:00 NR 12.6000 141.900 main 1641 1636 __________O___ -1 12.6000 141.900 7 4 273
1891321N13142 1891 60 WP MM NOT_NAMED 1891-11-16 18:00:00 NR 12.6063 141.760 main 1636 1623 __________P___ -1 12.6063 141.760 7 4 274
1891321N13142 1891 60 WP MM NOT_NAMED 1891-11-16 21:00:00 NR 12.6259 141.541 main 1623 1619 __________P___ -1 12.6259 141.541 7 5 278
1891321N13142 1891 60 WP MM NOT_NAMED 1891-11-17 00:00:00 NR 12.6716 141.295 main 1625 1613 __________P___ -1 12.6716 141.295 7 5 284
1891321N13142 1891 60 WP MM NOT_NAMED 1891-11-17 03:00:00 NR 12.7589 141.008 main 1624 1620 __________P___ -1 12.7589 141.008 7 6 288
1891321N13142 1891 60 WP MM NOT_NAMED 1891-11-17 04:00:00 NR 12.8000 140.900 main 1620 1616 __________O___ -1 12.8000 140.900 7 7 293
1891321N13142 1891 60 WP MM NOT_NAMED 1891-11-17 06:00:00 NR 12.9022 140.664 main 1623 1595 __________P___ -1 12.9022 140.664 7 8 296
1891321N13142 1891 60 WP MM NOT_NAMED 1891-11-17 09:00:00 NR 13.0993 140.267 main 1595 1544 __________P___ -1 13.0993 140.267 7 9 298
1891321N13142 1891 60 WP MM NOT_NAMED 1891-11-17 12:00:00 NR 13.3382 139.828 main 1544 1506 __________P___ -1 13.3382 139.828 7 10 300
1891321N13142 1891 60 WP MM NOT_NAMED 1891-11-17 15:00:00 NR 13.6063 139.360 main 1506 1487 __________P___ -1 13.6063 139.360 7 11 301
1891321N13142 1891 60 WP MM NOT_NAMED 1891-11-17 16:00:00 NR 13.7000 139.200 main 1487 1459 __________O___ -1 13.7000 139.200 7 11 301
1891321N13142 1891 60 WP MM NOT_NAMED 1891-11-17 18:00:00 NR 13.8934 138.876 main 1459 1414 __________P___ -1 13.8934 138.876 7 11 302
1891321N13142 1891 60 WP MM NOT_NAMED 1891-11-17 21:00:00 NR 14.2027 138.371 main 1414 1366 __________P___ -1 14.2027 138.371 7 12 302
1891321N13142 1891 60 WP MM NOT_NAMED 1891-11-18 00:00:00 NR 14.5154 137.860 main 1366 1319 __________P___ -1 14.5154 137.860 7 12 302
1891321N13142 1891 60 WP MM NOT_NAMED 1891-11-18 03:00:00 NR 14.8097 137.360 main 1319 1300 __________P___ -1 14.8097 137.360 7 11 301
1891321N13142 1891 60 WP MM NOT_NAMED 1891-11-18 04:00:00 NR 14.9000 137.200 main 1300 1271 __________O___ -1 14.9000 137.200 7 10 297
1891321N13142 1891 60 WP MM NOT_NAMED 1891-11-18 06:00:00 NR 15.0428 136.889 main 1271 1224 __________P___ -1 15.0428 136.889 7 10 294
1891321N13142 1891 60 WP MM NOT_NAMED 1891-11-18 09:00:00 NR 15.2318 136.440 main 1224 1189 __________P___ -1 15.2318 136.440 7 9 294
1891321N13142 1891 60 WP MM NOT_NAMED 1891-11-18 12:00:00 NR 15.4153 136.018 main 1189 1155 __________P___ -1 15.4153 136.018 7 9 296
1891321N13142 1891 60 WP MM NOT_NAMED 1891-11-18 15:00:00 NR 15.6214 135.624 main 1155 1148 __________P___ -1 15.6214 135.624 7 9 300
1891321N13142 1891 60 WP MM NOT_NAMED 1891-11-18 16:00:00 NR 15.7000 135.500 main 1148 1125 __________O___ -1 15.7000 135.500 7 9 307
1891321N13142 1891 60 WP MM NOT_NAMED 1891-11-18 18:00:00 NR 15.8984 135.248 main 1125 1108 __________P___ -1 15.8984 135.248 7 9 312
1891321N13142 1891 60 WP MM NOT_NAMED 1891-11-18 21:00:00 NR 16.2281 134.894 main 1108 1092 __________P___ -1 16.2281 134.894 7 9 316
1891321N13142 1891 60 WP MM NOT_NAMED 1891-11-19 00:00:00 NR 16.5710 134.572 main 1097 1078 __________P___ -1 16.5710 134.572 7 9 319
1891321N13142 1891 60 WP MM NOT_NAMED 1891-11-19 03:00:00 NR 16.8989 134.287 main 1083 1079 __________P___ -1 16.8989 134.287 7 8 320
1891321N13142 1891 60 WP MM NOT_NAMED 1891-11-19 04:00:00 NR 17.0000 134.200 main 1079 1071 __________O___ -1 17.0000 134.200 7 7 318
1891321N13142 1891 60 WP MM NOT_NAMED 1891-11-19 06:00:00 NR 17.1674 134.035 main 1071 1065 __________P___ -1 17.1674 134.035 7 6 317
1891321N13142 1891 60 WP MM NOT_NAMED 1891-11-19 09:00:00 NR 17.3933 133.819 main 1065 1059 __________P___ -1 17.3933 133.819 7 6 319
1891321N13142 1891 60 WP MM NOT_NAMED 1891-11-19 12:00:00 NR 17.6057 133.631 main 1059 1057 __________P___ -1 17.6057 133.631 7 6 321
1891321N13142 1891 60 WP MM NOT_NAMED 1891-11-19 15:00:00 NR 17.8231 133.457 main 1063 1054 __________P___ -1 17.8231 133.457 7 6 323
1891321N13142 1891 60 WP MM NOT_NAMED 1891-11-19 16:00:00 NR 17.9000 133.400 main 1061 1056 __________O___ -1 17.9000 133.400 7 6 325
1891321N13142 1891 60 WP MM NOT_NAMED 1891-11-19 18:00:00 NR 18.0798 133.270 main 1061 1051 __________P___ -1 18.0798 133.270 7 7 327
1891321N13142 1891 60 WP MM NOT_NAMED 1891-11-19 21:00:00 NR 18.3622 133.081 main 1056 1047 __________P___ -1 18.3622 133.081 7 7 328
1891321N13142 1891 60 WP MM NOT_NAMED 1891-11-20 00:00:00 NR 18.6462 132.904 main 1048 1045 __________P___ -1 18.6462 132.904 7 6 330
1891321N13142 1891 60 WP MM NOT_NAMED 1891-11-20 03:00:00 NR 18.9159 132.747 main 1047 1047 __________P___ -1 18.9159 132.747 7 6 331
1891321N13142 1891 60 WP MM NOT_NAMED 1891-11-20 04:00:00 NR 19.0000 132.700 main 1053 1050 __________O___ -1 19.0000 132.700 7 5 330
1891321N13142 1891 60 WP MM NOT_NAMED 1891-11-20 06:00:00 NR 19.1452 132.608 main 1050 1047 __________P___ -1 19.1452 132.608 7 5 330
1891321N13142 1891 60 WP MM NOT_NAMED 1891-11-20 09:00:00 NR 19.3439 132.489 main 1053 1051 __________P___ -1 19.3439 132.489 7 4 333
1891321N13142 1891 60 WP MM NOT_NAMED 1891-11-20 12:00:00 NR 19.5338 132.393 main 1057 1055 __________P___ -1 19.5338 132.393 7 4 338
1891321N13142 1891 60 WP MM NOT_NAMED 1891-11-20 15:00:00 NR 19.7303 132.320 main 1060 1060 __________P___ -1 19.7303 132.320 7 4 342
1891321N13142 1891 60 WP MM NOT_NAMED 1891-11-20 16:00:00 NR 19.8000 132.300 main 1062 1062 __________O___ -1 19.8000 132.300 7 4 344
1891321N13142 1891 60 WP MM NOT_NAMED 1891-11-20 18:00:00 NR 19.9421 132.258 main 1063 1054 __________P___ -1 19.9421 132.258 7 5 348
1891321N13142 1891 60 WP MM NOT_NAMED 1891-11-20 21:00:00 NR 20.1676 132.215 main 1058 1058 __________P___ -1 20.1676 132.215 7 5 353
1891321N13142 1891 60 WP MM NOT_NAMED 1891-11-21 00:00:00 NR 20.4163 132.193 main 1061 1061 __________P___ -1 20.4163 132.193 7 5 0
1891321N13142 1891 60 WP MM NOT_NAMED 1891-11-21 03:00:00 NR 20.6974 132.195 main 1068 1068 __________P___ -1 20.6974 132.195 7 6 0
1891321N13142 1891 60 WP MM NOT_NAMED 1891-11-21 04:00:00 NR 20.8000 132.200 main 1070 1070 __________O___ -1 20.8000 132.200 7 7 0
1891321N13142 1891 60 WP MM NOT_NAMED 1891-11-21 06:00:00 NR 21.0319 132.213 main 1076 1078 __________P___ -1 21.0319 132.213 7 7 5
1891321N13142 1891 60 WP MM NOT_NAMED 1891-11-21 09:00:00 NR 21.4116 132.253 main 1084 1039 __________P___ -1 21.4116 132.253 7 8 6
1891321N13142 1891 60 WP MM NOT_NAMED 1891-11-21 12:00:00 NR 21.8045 132.309 main 1039 997 __________P___ -1 21.8045 132.309 7 8 8
1891321N13142 1891 60 WP MM NOT_NAMED 1891-11-21 15:00:00 NR 22.1823 132.376 main 997 986 __________P___ -1 22.1823 132.376 7 8 10
1891321N13142 1891 60 WP MM NOT_NAMED 1891-11-21 16:00:00 NR 22.3000 132.400 main 986 964 __________O___ -1 22.3000 132.400 7 7 11
1891321N13142 1891 60 WP MM NOT_NAMED 1891-11-21 18:00:00 NR 22.5190 132.448 main 964 932 __________P___ -1 22.5190 132.448 7 6 13
1891321N13142 1891 60 WP MM NOT_NAMED 1891-11-21 21:00:00 NR 22.8122 132.522 main 932 901 __________P___ -1 22.8122 132.522 7 6 14
1891321N13142 1891 60 WP MM NOT_NAMED 1891-11-22 00:00:00 NR 23.0748 132.598 main 901 882 __________P___ -1 23.0748 132.598 7 5 15
1891321N13142 1891 60 WP MM NOT_NAMED 1891-11-22 03:00:00 NR 23.3199 132.674 main 882 871 __________P___ -1 23.3199 132.674 7 5 17
1891321N13142 1891 60 WP MM NOT_NAMED 1891-11-22 04:00:00 NR 23.4000 132.700 main 871 __________O___ -1 23.4000 132.700 7 5 0

Digital Typhoon Data and Search

About IBTrACS Database

This database is a web-friendly format of International Best Track Archive for Climate Stewardship (IBTrACS), a global best track data archive curated by NOAA dating back to 1842.

Updated: 2021-12-08